createdAt,value
2022-10-04T00:01:30.200Z,6.77
2022-10-04T00:04:08.163Z,7.60
2022-10-04T00:06:37.002Z,6.57
2022-10-04T00:09:09.266Z,6.53
2022-10-04T00:11:44.463Z,5.93
2022-10-04T00:14:18.608Z,7.07
2022-10-04T00:16:47.075Z,6.13
2022-10-04T00:19:39.282Z,6.03
2022-10-04T00:22:22.636Z,5.97
2022-10-04T00:25:21.920Z,6.63
2022-10-04T00:28:28.779Z,5.83
2022-10-04T00:31:21.488Z,6.03
2022-10-04T00:33:51.936Z,6.80
2022-10-04T00:36:49.278Z,6.53
2022-10-04T00:39:27.254Z,6.30
2022-10-04T00:42:06.472Z,6.10
2022-10-04T00:44:44.683Z,6.83
2022-10-04T00:47:25.616Z,6.73
2022-10-04T00:49:57.930Z,6.90
2022-10-04T00:52:30.419Z,7.20
2022-10-04T00:55:01.355Z,6.53
2022-10-04T00:57:32.692Z,5.53
2022-10-04T01:00:06.371Z,6.30
2022-10-04T01:02:39.768Z,6.03
2022-10-04T01:05:10.700Z,5.77
2022-10-04T01:07:42.712Z,6.47
2022-10-04T01:10:15.741Z,6.13
2022-10-04T01:12:51.317Z,6.23
2022-10-04T01:15:32.106Z,5.93
2022-10-04T01:18:15.657Z,6.23
2022-10-04T01:20:54.911Z,5.97
2022-10-04T01:23:40.715Z,6.03
2022-10-04T01:26:37.892Z,5.63
2022-10-04T01:29:11.095Z,5.80
2022-10-04T01:31:42.010Z,5.67
2022-10-04T01:34:13.315Z,6.60
2022-10-04T01:36:42.071Z,5.53
2022-10-04T01:39:11.817Z,6.30
2022-10-04T01:41:47.463Z,5.80
2022-10-04T01:44:24.271Z,6.63
2022-10-04T01:46:56.736Z,6.47
2022-10-04T01:49:30.335Z,6.10
2022-10-04T01:52:03.215Z,6.50
2022-10-04T01:54:38.533Z,5.97
2022-10-04T01:57:13.709Z,6.67
2022-10-04T01:59:46.348Z,6.50
2022-10-04T02:02:22.480Z,6.00
2022-10-04T02:04:55.739Z,5.63
2022-10-04T02:07:26.562Z,6.77
2022-10-04T02:10:00.764Z,6.07
2022-10-04T02:12:31.709Z,7.03
2022-10-04T02:15:02.765Z,6.00
2022-10-04T02:17:33.456Z,6.33
2022-10-04T02:20:03.687Z,6.00
2022-10-04T02:22:32.273Z,6.10
2022-10-04T02:25:02.078Z,6.47
2022-10-04T02:27:31.690Z,5.60
2022-10-04T02:30:04.230Z,5.77
2022-10-04T02:32:51.044Z,5.63
2022-10-04T02:35:22.152Z,6.07
2022-10-04T02:37:55.813Z,5.83
2022-10-04T02:40:31.316Z,6.33
2022-10-04T02:43:02.987Z,6.73
2022-10-04T02:45:39.495Z,6.60
2022-10-04T02:48:20.526Z,6.60
2022-10-04T02:50:53.954Z,6.20
2022-10-04T02:53:27.772Z,6.27
2022-10-04T02:55:58.590Z,6.50
2022-10-04T02:58:28.317Z,6.17
2022-10-04T03:00:59.621Z,5.97
2022-10-04T03:03:30.133Z,5.20
2022-10-04T03:06:05.783Z,6.00
2022-10-04T03:08:37.196Z,5.93
2022-10-04T03:11:07.437Z,6.60
2022-10-04T03:13:37.252Z,6.23
2022-10-04T03:16:06.238Z,6.13
2022-10-04T03:18:36.919Z,6.67
2022-10-04T03:21:08.148Z,6.37
2022-10-04T03:23:37.167Z,7.07
2022-10-04T03:26:21.211Z,6.53
2022-10-04T03:28:49.952Z,6.60
2022-10-04T03:31:20.065Z,6.37
2022-10-04T03:33:48.850Z,5.50
2022-10-04T03:36:20.198Z,6.97
2022-10-04T03:38:50.619Z,6.33
2022-10-04T03:41:20.729Z,6.60
2022-10-04T03:43:51.415Z,6.07
2022-10-04T03:46:22.881Z,6.83
2022-10-04T03:48:53.836Z,6.43
2022-10-04T03:51:24.490Z,5.90
2022-10-04T03:53:54.888Z,6.37
2022-10-04T03:56:28.590Z,7.33
2022-10-04T03:58:57.348Z,5.57
2022-10-04T04:01:41.851Z,6.50
2022-10-04T04:04:23.353Z,6.00
2022-10-04T04:06:57.666Z,6.07
2022-10-04T04:09:33.952Z,5.93
2022-10-04T04:12:07.906Z,5.90
2022-10-04T04:14:36.156Z,5.77
2022-10-04T04:17:30.501Z,6.23
2022-10-04T04:20:06.322Z,6.07
2022-10-04T04:22:37.830Z,5.40
2022-10-04T04:25:13.047Z,5.77
2022-10-04T04:27:44.933Z,5.70
2022-10-04T04:30:18.166Z,5.50
2022-10-04T04:32:51.266Z,5.83
2022-10-04T04:35:25.162Z,6.93
2022-10-04T04:38:18.674Z,6.33
2022-10-04T04:40:47.305Z,6.23
2022-10-04T04:43:20.454Z,6.60
2022-10-04T04:46:08.604Z,5.70
2022-10-04T04:48:39.216Z,7.23
2022-10-04T04:51:07.716Z,6.00
2022-10-04T04:53:36.080Z,7.70
2022-10-04T04:56:10.425Z,6.77
2022-10-04T04:58:44.234Z,6.93
2022-10-04T05:01:20.068Z,6.93
2022-10-04T05:04:25.467Z,6.60
2022-10-04T05:07:05.454Z,6.60
2022-10-04T05:09:35.116Z,6.83
2022-10-04T05:12:11.510Z,7.20
2022-10-04T05:14:46.510Z,7.03
2022-10-04T05:17:20.313Z,6.47
2022-10-04T05:19:48.451Z,6.53
2022-10-04T05:22:21.576Z,6.53
2022-10-04T05:24:53.790Z,6.93
2022-10-04T05:27:31.835Z,6.70
2022-10-04T05:30:06.453Z,7.33
2022-10-04T05:32:45.517Z,5.93
2022-10-04T05:35:19.596Z,6.53
2022-10-04T05:37:59.013Z,5.67
2022-10-04T05:40:37.119Z,6.37
2022-10-04T05:43:23.034Z,5.90
2022-10-04T05:46:13.581Z,6.50
2022-10-04T05:48:44.470Z,6.13
2022-10-04T05:51:20.877Z,6.37
2022-10-04T05:53:50.124Z,6.77
2022-10-04T05:56:56.929Z,6.80
2022-10-04T05:59:38.543Z,5.83
2022-10-04T06:02:23.935Z,6.63
2022-10-04T06:05:09.553Z,5.70
2022-10-04T06:07:42.472Z,8.53
2022-10-04T06:10:40.433Z,6.13
2022-10-04T06:13:18.127Z,6.43
2022-10-04T06:15:58.760Z,6.97
2022-10-04T06:18:45.585Z,5.97
2022-10-04T06:21:25.558Z,6.60
2022-10-04T06:24:00.370Z,6.03
2022-10-04T06:26:34.374Z,5.97
2022-10-04T06:29:06.221Z,5.80
2022-10-04T06:31:48.232Z,5.63
2022-10-04T06:35:03.634Z,6.37
2022-10-04T06:37:55.391Z,5.73
2022-10-04T06:40:46.317Z,6.73
2022-10-04T06:43:31.698Z,6.13
2022-10-04T06:46:13.105Z,6.13
2022-10-04T06:49:00.036Z,5.33
2022-10-04T06:51:46.864Z,6.23
2022-10-04T06:54:32.442Z,6.17
2022-10-04T06:57:20.061Z,7.03
2022-10-04T07:00:01.857Z,6.50
2022-10-04T07:02:35.546Z,5.60
2022-10-04T07:05:13.966Z,6.63
2022-10-04T07:07:48.725Z,6.53
2022-10-04T07:10:27.220Z,6.47
2022-10-04T07:13:11.912Z,6.77
2022-10-04T07:15:48.628Z,6.20
2022-10-04T07:18:24.315Z,6.67
2022-10-04T07:21:00.456Z,5.67
2022-10-04T07:23:33.825Z,6.37
2022-10-04T07:26:06.990Z,6.87
2022-10-04T07:28:59.489Z,5.80
2022-10-04T07:31:29.915Z,7.27
2022-10-04T07:34:02.409Z,7.73
2022-10-04T07:36:40.191Z,7.33
2022-10-04T07:39:15.527Z,8.47
2022-10-04T07:41:51.278Z,8.67
2022-10-04T07:44:27.949Z,7.47
2022-10-04T07:47:02.208Z,7.23
2022-10-04T07:49:37.763Z,7.10
2022-10-04T07:52:49.061Z,7.50
2022-10-04T07:55:28.760Z,6.80
2022-10-04T07:58:14.945Z,6.23
2022-10-04T08:00:50.602Z,6.37
2022-10-04T08:03:37.947Z,6.83
2022-10-04T08:06:13.884Z,6.63
2022-10-04T08:09:12.309Z,7.50
2022-10-04T08:11:52.217Z,7.60
2022-10-04T08:14:28.748Z,8.07
2022-10-04T08:17:14.439Z,7.33
2022-10-04T08:19:57.239Z,8.50
2022-10-04T08:22:40.262Z,6.43
2022-10-04T08:25:17.751Z,7.80
2022-10-04T08:28:17.176Z,8.27
2022-10-04T08:31:04.722Z,6.67
2022-10-04T08:33:52.831Z,7.93
2022-10-04T08:36:32.577Z,7.43
2022-10-04T08:39:01.958Z,6.80
2022-10-04T08:42:14.944Z,8.40
2022-10-04T08:45:24.462Z,6.70
2022-10-04T08:48:40.399Z,7.33
2022-10-04T08:52:05.133Z,7.37
2022-10-04T08:54:57.368Z,7.17
2022-10-04T08:57:59.725Z,7.43
2022-10-04T09:00:36.559Z,8.00
2022-10-04T09:03:37.026Z,7.03
2022-10-04T09:06:38.729Z,7.63
2022-10-04T09:09:44.596Z,7.97
2022-10-04T09:12:47.589Z,8.27
2022-10-04T09:15:27.302Z,7.87
2022-10-04T09:18:04.887Z,7.53
2022-10-04T09:20:48.994Z,7.87
2022-10-04T09:23:57.959Z,8.37
2022-10-04T09:26:35.437Z,7.87
2022-10-04T09:29:32.155Z,7.70
2022-10-04T09:32:41.873Z,8.27
2022-10-04T09:35:56.064Z,7.57
2022-10-04T09:39:17.886Z,8.60
2022-10-04T09:42:04.312Z,7.47
2022-10-04T09:45:02.800Z,7.23
2022-10-04T09:47:45.772Z,8.63
2022-10-04T09:50:58.499Z,9.77
2022-10-04T09:53:53.007Z,8.67
2022-10-04T09:56:52.174Z,7.93
2022-10-04T09:59:50.565Z,7.43
2022-10-04T10:02:56.447Z,8.67
2022-10-04T10:05:43.159Z,8.13
2022-10-04T10:08:23.871Z,7.77
2022-10-04T10:11:22.458Z,7.50
2022-10-04T10:14:37.097Z,7.33
2022-10-04T10:17:16.222Z,7.73
2022-10-04T10:20:16.907Z,7.50
2022-10-04T10:23:26.645Z,6.97
2022-10-04T10:26:15.507Z,7.87
2022-10-04T10:29:18.162Z,7.00
2022-10-04T10:32:00.787Z,7.23
2022-10-04T10:34:52.376Z,7.23
2022-10-04T10:37:36.690Z,7.33
2022-10-04T10:40:32.754Z,7.90
2022-10-04T10:43:15.471Z,7.63
2022-10-04T10:46:05.799Z,7.83
2022-10-04T10:48:54.992Z,7.00
2022-10-04T10:51:59.477Z,7.53
2022-10-04T10:55:00.340Z,7.53
2022-10-04T10:57:57.076Z,7.30
2022-10-04T11:00:26.337Z,7.37
2022-10-04T11:03:56.810Z,7.77
2022-10-04T11:06:48.562Z,7.63
2022-10-04T11:09:30.825Z,7.53
2022-10-04T11:12:26.978Z,7.97
2022-10-04T11:15:38.664Z,7.70
2022-10-04T11:18:30.780Z,6.97
2022-10-04T11:21:25.849Z,8.13
2022-10-04T11:24:22.928Z,7.10
2022-10-04T11:27:14.345Z,6.90
2022-10-04T11:30:11.610Z,8.07
2022-10-04T11:33:17.351Z,7.07
2022-10-04T11:36:08.771Z,7.37
2022-10-04T11:39:02.668Z,7.57
2022-10-04T11:41:47.746Z,11.48
2022-10-04T11:44:45.459Z,8.40
2022-10-04T11:47:27.178Z,7.07
2022-10-04T11:50:09.056Z,7.63
2022-10-04T11:53:04.839Z,7.70
2022-10-04T11:56:05.858Z,6.87
2022-10-04T11:58:49.728Z,7.50
2022-10-04T12:01:41.097Z,8.03
2022-10-04T12:04:41.013Z,8.23
2022-10-04T12:07:35.385Z,7.43
2022-10-04T12:10:19.198Z,7.53
2022-10-04T12:13:28.877Z,7.07
2022-10-04T12:16:34.044Z,6.60
2022-10-04T12:19:30.569Z,6.53
2022-10-04T12:22:30.308Z,6.87
2022-10-04T12:25:28.199Z,7.43
2022-10-04T12:28:22.587Z,7.40
2022-10-04T12:31:11.531Z,7.97
2022-10-04T12:33:49.164Z,7.57
2022-10-04T12:36:35.574Z,7.60
2022-10-04T12:39:20.684Z,7.47
2022-10-04T12:42:00.259Z,7.20
2022-10-04T12:44:41.983Z,7.53
2022-10-04T12:47:45.082Z,7.60
2022-10-04T12:50:26.308Z,8.20
2022-10-04T12:53:05.279Z,8.47
2022-10-04T12:55:53.661Z,7.80
2022-10-04T12:58:30.625Z,7.57
2022-10-04T13:01:12.392Z,7.50
2022-10-04T13:04:00.847Z,7.87
2022-10-04T13:06:38.895Z,7.47
2022-10-04T13:09:17.072Z,7.73
2022-10-04T13:12:03.928Z,7.67
2022-10-04T13:15:03.309Z,7.93
2022-10-04T13:17:43.576Z,8.33
2022-10-04T13:20:32.837Z,8.30
2022-10-04T13:23:09.557Z,7.77
2022-10-04T13:26:06.657Z,8.00
2022-10-04T13:28:43.789Z,7.67
2022-10-04T13:31:18.083Z,7.33
2022-10-04T13:33:54.681Z,7.47
2022-10-04T13:36:30.629Z,7.63
2022-10-04T13:39:25.801Z,8.03
2022-10-04T13:42:12.471Z,7.93
2022-10-04T13:45:07.052Z,7.63
2022-10-04T13:48:14.453Z,9.47
2022-10-04T13:51:00.169Z,8.47
2022-10-04T13:53:57.064Z,7.80
2022-10-04T13:56:55.397Z,8.50
2022-10-04T13:59:35.059Z,8.57
2022-10-04T14:02:41.935Z,8.83
2022-10-04T14:05:42.707Z,8.17
2022-10-04T14:08:42.378Z,8.87
2022-10-04T14:11:36.005Z,9.53
2022-10-04T14:14:34.412Z,8.63
2022-10-04T14:17:33.331Z,8.50
2022-10-04T14:20:39.411Z,7.77
2022-10-04T14:23:40.527Z,9.20
2022-10-04T14:26:46.640Z,7.73
2022-10-04T14:29:34.443Z,7.83
2022-10-04T14:32:42.700Z,6.73
2022-10-04T14:35:16.780Z,8.23
2022-10-04T14:38:29.235Z,7.70
2022-10-04T14:41:41.372Z,7.03
2022-10-04T14:44:46.700Z,7.87
2022-10-04T14:47:32.073Z,10.60
2022-10-04T14:50:19.140Z,7.67
2022-10-04T14:53:00.615Z,8.23
2022-10-04T14:55:56.283Z,8.23
2022-10-04T14:58:33.016Z,10.00
2022-10-04T15:01:16.007Z,8.70
2022-10-04T15:03:56.220Z,8.80
2022-10-04T15:06:36.589Z,7.77
2022-10-04T15:09:31.048Z,7.77
2022-10-04T15:15:23.771Z,8.17
2022-10-04T15:18:03.451Z,8.03
2022-10-04T15:20:37.976Z,7.83
2022-10-04T15:23:16.102Z,6.83
2022-10-04T15:25:47.509Z,7.23
2022-10-04T15:28:53.017Z,6.53
2022-10-04T15:31:27.958Z,7.70
2022-10-04T15:34:07.483Z,6.63
2022-10-04T15:36:51.889Z,6.57
2022-10-04T15:39:45.767Z,7.77
2022-10-04T15:42:17.497Z,7.20
2022-10-04T15:45:17.111Z,6.67
2022-10-04T15:48:11.253Z,7.30
2022-10-04T15:50:55.498Z,6.90
2022-10-04T15:53:44.549Z,7.47
2022-10-04T15:56:34.358Z,7.67
2022-10-04T15:59:30.141Z,7.00
2022-10-04T16:02:24.245Z,7.13
2022-10-04T16:05:07.192Z,7.20
2022-10-04T16:08:07.730Z,7.27
2022-10-04T16:11:08.369Z,8.20
2022-10-04T16:13:57.315Z,8.17
2022-10-04T16:17:02.370Z,7.20
2022-10-04T16:19:48.041Z,6.63
2022-10-04T16:22:19.837Z,6.57
2022-10-04T16:24:51.476Z,6.50
2022-10-04T16:27:39.070Z,7.27
2022-10-04T16:30:26.547Z,7.20
2022-10-04T16:33:06.606Z,7.10
2022-10-04T16:35:40.437Z,7.17
2022-10-04T16:38:23.383Z,7.10
2022-10-04T16:41:09.383Z,6.63
2022-10-04T16:43:41.187Z,6.57
2022-10-04T16:46:20.033Z,6.63
2022-10-04T16:48:53.797Z,6.87
2022-10-04T16:51:57.139Z,6.90
2022-10-04T16:54:43.177Z,6.57
2022-10-04T16:57:19.732Z,8.33
2022-10-04T16:59:57.106Z,6.93
2022-10-04T17:02:48.183Z,6.17
2022-10-04T17:05:48.545Z,6.97
2022-10-04T17:08:53.885Z,6.87
2022-10-04T17:12:01.511Z,6.10
2022-10-04T17:15:09.314Z,6.60
2022-10-04T17:17:47.117Z,6.73
2022-10-04T17:20:29.578Z,7.10
2022-10-04T17:23:15.479Z,6.73
2022-10-04T17:25:50.924Z,7.97
2022-10-04T17:28:30.776Z,7.10
2022-10-04T17:31:10.391Z,5.97
2022-10-04T17:33:52.489Z,6.67
2022-10-04T17:36:43.367Z,6.33
2022-10-04T17:39:35.387Z,6.23
2022-10-04T17:42:27.958Z,6.60
2022-10-04T17:45:18.735Z,6.27
2022-10-04T17:48:15.468Z,7.63
2022-10-04T17:51:09.350Z,6.33
2022-10-04T17:53:58.906Z,7.17
2022-10-04T17:56:32.396Z,7.10
2022-10-04T17:59:06.371Z,7.30
2022-10-04T18:01:42.058Z,6.57
2022-10-04T18:04:18.366Z,7.33
2022-10-04T18:06:53.562Z,6.60
2022-10-04T18:09:27.173Z,6.97
2022-10-04T18:11:58.210Z,7.13
2022-10-04T18:14:53.359Z,7.13
2022-10-04T18:17:33.201Z,6.40
2022-10-04T18:20:27.946Z,7.37
2022-10-04T18:23:01.355Z,6.97
2022-10-04T18:25:33.992Z,7.27
2022-10-04T18:28:06.548Z,7.20
2022-10-04T18:30:36.124Z,6.40
2022-10-04T18:33:16.385Z,6.67
2022-10-04T18:35:53.401Z,6.50
2022-10-04T18:38:24.963Z,6.60
2022-10-04T18:40:57.585Z,6.50
2022-10-04T18:43:33.295Z,6.07
2022-10-04T18:46:05.112Z,7.67
2022-10-04T18:48:47.508Z,7.23
2022-10-04T18:51:27.296Z,7.00
2022-10-04T18:54:24.432Z,7.07
2022-10-04T18:57:04.172Z,7.27
2022-10-04T18:59:58.463Z,7.53
2022-10-04T19:02:35.193Z,7.53
2022-10-04T19:05:15.451Z,6.87
2022-10-04T19:07:51.077Z,7.87
2022-10-04T19:10:33.608Z,7.57
2022-10-04T19:13:14.022Z,7.50
2022-10-04T19:15:48.043Z,7.43
2022-10-04T19:18:36.997Z,6.07
2022-10-04T19:21:14.152Z,6.00
2022-10-04T19:24:08.770Z,7.00
2022-10-04T19:26:40.734Z,6.50
2022-10-04T19:29:25.611Z,6.80
2022-10-04T19:31:59.180Z,7.03
2022-10-04T19:34:39.708Z,6.30
2022-10-04T19:37:14.614Z,8.00
2022-10-04T19:39:54.841Z,6.70
2022-10-04T19:42:35.123Z,7.43
2022-10-04T19:45:19.039Z,6.47
2022-10-04T19:47:51.444Z,6.17
2022-10-04T19:50:23.819Z,6.03
2022-10-04T19:52:55.812Z,6.53
2022-10-04T19:55:32.440Z,6.40
2022-10-04T19:58:09.713Z,6.53
2022-10-04T20:00:37.802Z,6.43
2022-10-04T20:03:13.029Z,5.67
2022-10-04T20:05:46.074Z,6.87
2022-10-04T20:08:17.306Z,7.20
2022-10-04T20:10:45.371Z,6.67
2022-10-04T20:13:23.727Z,6.97
2022-10-04T20:15:54.058Z,6.27
2022-10-04T20:19:01.035Z,6.93
2022-10-04T20:21:32.412Z,6.07
2022-10-04T20:24:02.528Z,5.93
2022-10-04T20:26:56.562Z,6.50
2022-10-04T20:30:07.659Z,6.77
2022-10-04T20:32:58.603Z,6.33
2022-10-04T20:36:12.285Z,6.93
2022-10-04T20:39:03.185Z,6.33
2022-10-04T20:42:02.450Z,7.20
2022-10-04T20:44:54.352Z,6.33
2022-10-04T20:47:34.995Z,6.50
2022-10-04T20:50:06.845Z,7.03
2022-10-04T20:52:37.461Z,6.23
2022-10-04T20:55:20.297Z,7.17
2022-10-04T20:57:48.319Z,7.60
2022-10-04T21:00:25.727Z,6.37
2022-10-04T21:03:15.408Z,6.23
2022-10-04T21:05:43.645Z,6.83
2022-10-04T21:08:24.198Z,5.80
2022-10-04T21:11:09.727Z,7.20
2022-10-04T21:13:49.710Z,6.67
2022-10-04T21:16:38.190Z,7.13
2022-10-04T21:19:46.026Z,6.70
2022-10-04T21:22:34.468Z,6.83
2022-10-04T21:25:03.602Z,7.20
2022-10-04T21:27:35.158Z,7.80
2022-10-04T21:30:05.129Z,6.60
2022-10-04T21:32:35.699Z,7.10
2022-10-04T21:35:04.160Z,6.60
2022-10-04T21:37:32.525Z,8.07
2022-10-04T21:40:00.483Z,7.07
2022-10-04T21:42:28.722Z,6.80
2022-10-04T21:44:58.078Z,6.53
2022-10-04T21:47:26.181Z,6.97
2022-10-04T21:49:55.132Z,8.13
2022-10-04T21:52:23.625Z,7.67
2022-10-04T21:54:51.737Z,6.70
2022-10-04T21:57:19.820Z,7.13
2022-10-04T21:59:48.143Z,7.53
2022-10-04T22:02:17.684Z,6.37
2022-10-04T22:04:45.797Z,6.27
2022-10-04T22:07:14.104Z,7.33
2022-10-04T22:09:42.086Z,8.00
2022-10-04T22:12:10.102Z,7.67
2022-10-04T22:14:38.110Z,7.17
2022-10-04T22:17:06.287Z,6.57
2022-10-04T22:19:35.803Z,6.40
2022-10-04T22:22:03.985Z,6.13
2022-10-04T22:24:32.348Z,5.63
2022-10-04T22:27:00.476Z,6.20
2022-10-04T22:29:31.060Z,6.03
2022-10-04T22:31:59.206Z,6.07
2022-10-04T22:34:27.273Z,6.63
2022-10-04T22:36:56.643Z,5.67
2022-10-04T22:39:27.867Z,6.57
2022-10-04T22:41:59.421Z,6.43
2022-10-04T22:44:31.085Z,6.30
2022-10-04T22:47:01.224Z,6.90
2022-10-04T22:49:32.741Z,6.53
2022-10-04T22:52:05.326Z,7.23
2022-10-04T22:54:35.665Z,6.93
2022-10-04T22:57:03.782Z,6.27
2022-10-04T22:59:37.013Z,6.03
2022-10-04T23:02:12.594Z,6.53
2022-10-04T23:04:42.102Z,6.10
2022-10-04T23:07:11.597Z,6.07
2022-10-04T23:09:39.708Z,5.30
2022-10-04T23:12:09.458Z,6.47
2022-10-04T23:14:38.514Z,5.37
2022-10-04T23:17:21.713Z,6.00
2022-10-04T23:19:50.301Z,6.67
2022-10-04T23:22:28.949Z,6.27
2022-10-04T23:24:57.841Z,6.87
2022-10-04T23:27:25.921Z,7.43
2022-10-04T23:29:59.016Z,6.87
2022-10-04T23:32:28.202Z,6.20
2022-10-04T23:34:57.132Z,6.03
2022-10-04T23:37:28.709Z,6.53
2022-10-04T23:39:56.715Z,6.57
2022-10-04T23:42:29.856Z,6.83
2022-10-04T23:44:59.322Z,6.50
2022-10-04T23:47:33.517Z,5.73
2022-10-04T23:50:02.158Z,6.97
2022-10-04T23:52:37.287Z,6.53
2022-10-04T23:55:17.568Z,6.00
2022-10-04T23:57:46.198Z,6.00
